createdAt,value
2018-07-08T00:00:47.769Z,19.50
2018-07-08T00:01:47.804Z,20.50
2018-07-08T00:02:47.838Z,20.70
2018-07-08T00:03:47.873Z,21.00
2018-07-08T00:04:47.909Z,20.80
2018-07-08T00:05:47.946Z,20.30
2018-07-08T00:06:47.980Z,20.50
2018-07-08T00:07:48.016Z,21.80
2018-07-08T00:08:48.051Z,19.30
2018-07-08T00:09:48.085Z,19.20
2018-07-08T00:10:48.121Z,20.40
2018-07-08T00:11:48.156Z,20.20
2018-07-08T00:12:48.192Z,20.60
2018-07-08T00:13:48.230Z,19.60
2018-07-08T00:14:48.264Z,19.80
2018-07-08T00:15:51.324Z,19.90
2018-07-08T00:16:48.333Z,18.70
2018-07-08T00:17:48.369Z,20.30
2018-07-08T00:18:48.404Z,19.70
2018-07-08T00:19:48.438Z,20.10
2018-07-08T00:21:31.031Z,19.90
2018-07-08T00:22:31.058Z,19.80
2018-07-08T00:23:31.095Z,20.00
2018-07-08T00:24:31.129Z,19.70
2018-07-08T00:25:31.164Z,21.10
2018-07-08T00:26:31.198Z,20.50
2018-07-08T00:27:31.234Z,21.20
2018-07-08T00:28:31.268Z,20.20
2018-07-08T00:29:33.927Z,19.50
2018-07-08T00:30:31.339Z,20.60
2018-07-08T00:31:31.374Z,20.10
2018-07-08T00:32:31.408Z,19.00
2018-07-08T00:33:31.444Z,20.50
2018-07-08T00:34:31.480Z,21.40
2018-07-08T00:35:31.516Z,20.40
2018-07-08T00:36:31.550Z,20.40
2018-07-08T00:37:31.584Z,20.10
2018-07-08T00:38:31.620Z,20.70
2018-07-08T00:39:31.655Z,19.30
2018-07-08T00:40:31.689Z,20.50
2018-07-08T00:41:31.725Z,19.50
2018-07-08T00:42:31.805Z,20.30
2018-07-08T00:43:31.795Z,18.10
2018-07-08T00:44:31.830Z,21.20
2018-07-08T00:45:31.866Z,19.50
2018-07-08T00:46:31.902Z,19.60
2018-07-08T00:47:31.935Z,20.50
2018-07-08T00:48:31.970Z,21.00
2018-07-08T00:49:32.005Z,19.90
2018-07-08T00:50:32.041Z,19.40
2018-07-08T00:51:32.075Z,21.00
2018-07-08T00:52:32.109Z,20.20
2018-07-08T00:53:32.145Z,20.60
2018-07-08T00:54:32.180Z,20.50
2018-07-08T00:55:32.216Z,20.50
2018-07-08T00:56:32.251Z,21.10
2018-07-08T00:57:32.290Z,20.50
2018-07-08T00:58:32.321Z,20.50
2018-07-08T00:59:32.356Z,21.00
2018-07-08T01:00:32.390Z,20.30
2018-07-08T01:01:32.428Z,21.40
2018-07-08T01:02:32.461Z,20.80
2018-07-08T01:03:32.496Z,20.30
2018-07-08T01:04:32.533Z,21.20
2018-07-08T01:05:32.566Z,22.20
2018-07-08T01:06:32.601Z,21.70
2018-07-08T01:07:32.638Z,22.20
2018-07-08T01:08:32.673Z,22.00
2018-07-08T01:09:32.709Z,23.50
2018-07-08T01:10:33.165Z,21.70
2018-07-08T01:11:35.398Z,21.30
2018-07-08T01:12:32.811Z,21.70
2018-07-08T01:13:32.846Z,20.70
2018-07-08T01:14:32.882Z,21.40
2018-07-08T01:15:32.916Z,21.30
2018-07-08T01:16:32.957Z,20.80
2018-07-08T01:17:32.985Z,20.70
2018-07-08T01:18:33.020Z,21.90
2018-07-08T01:19:33.057Z,22.20
2018-07-08T01:21:33.349Z,21.80
2018-07-08T01:22:33.180Z,21.60
2018-07-08T01:23:33.621Z,21.80
2018-07-08T01:25:33.265Z,21.60
2018-07-08T01:26:33.302Z,20.20
2018-07-08T01:27:33.335Z,21.00
2018-07-08T01:28:33.369Z,21.20
2018-07-08T01:29:33.427Z,22.30
2018-07-08T01:30:33.440Z,23.20
2018-07-08T01:31:33.475Z,23.00
2018-07-08T01:32:33.509Z,21.30
2018-07-08T01:33:33.545Z,20.80
2018-07-08T01:34:33.603Z,22.40
2018-07-08T01:35:33.940Z,22.90
2018-07-08T01:36:33.873Z,23.90
2018-07-08T01:38:33.941Z,22.70
2018-07-08T01:39:33.979Z,22.50
2018-07-08T01:40:33.812Z,21.80
2018-07-08T01:41:33.847Z,24.10
2018-07-08T01:42:34.084Z,23.20
2018-07-08T01:46:34.221Z,20.80
2018-07-08T01:49:34.635Z,21.50
2018-07-08T02:00:47.550Z,22.10
2018-07-08T02:10:38.112Z,21.40
2018-07-08T02:15:37.578Z,22.30
2018-07-08T02:16:37.612Z,22.60
2018-07-08T02:17:37.648Z,23.00
2018-07-08T02:18:37.683Z,22.90
2018-07-08T02:19:37.718Z,22.20
2018-07-08T02:20:37.755Z,20.90
2018-07-08T02:21:37.787Z,22.60
2018-07-08T02:22:37.823Z,23.50
2018-07-08T02:23:37.858Z,21.50
2018-07-08T02:24:37.892Z,20.90
2018-07-08T02:25:38.433Z,21.80
2018-07-08T02:27:38.217Z,21.70
2018-07-08T02:39:39.755Z,22.20
2018-07-08T02:41:38.487Z,23.00
2018-07-08T02:42:38.527Z,21.70
2018-07-08T02:43:38.558Z,21.50
2018-07-08T02:44:38.592Z,22.20
2018-07-08T02:45:38.627Z,22.70
2018-07-08T02:46:38.661Z,21.50
2018-07-08T02:47:38.698Z,22.00
2018-07-08T02:48:38.733Z,21.80
2018-07-08T02:49:38.767Z,22.30
2018-07-08T02:50:38.801Z,21.10
2018-07-08T02:51:38.836Z,21.70
2018-07-08T02:52:38.873Z,21.00
2018-07-08T02:53:39.109Z,21.30
2018-07-08T02:54:38.940Z,20.70
2018-07-08T02:55:38.974Z,21.30
2018-07-08T02:56:39.031Z,21.20
2018-07-08T02:57:39.265Z,21.50
2018-07-08T02:58:39.098Z,22.60
2018-07-08T02:59:39.117Z,21.20
2018-07-08T03:00:39.149Z,20.10
2018-07-08T03:01:39.185Z,19.90
2018-07-08T03:02:39.218Z,19.90
2018-07-08T03:03:39.253Z,21.60
2018-07-08T03:04:39.488Z,21.00
2018-07-08T03:05:39.324Z,20.50
2018-07-08T03:06:39.357Z,22.90
2018-07-08T03:07:39.593Z,21.10
2018-07-08T03:08:39.443Z,21.20
2018-07-08T03:09:39.461Z,20.30
2018-07-08T03:10:39.494Z,21.10
2018-07-08T03:12:39.563Z,21.90
2018-07-08T03:13:39.611Z,21.50
2018-07-08T03:14:39.632Z,21.40
2018-07-08T03:15:39.669Z,20.90
2018-07-08T03:16:39.702Z,21.70
2018-07-08T03:17:39.739Z,21.30
2018-07-08T03:18:39.776Z,22.10
2018-07-08T03:19:39.806Z,21.50
2018-07-08T03:20:39.839Z,21.50
2018-07-08T03:21:39.874Z,20.60
2018-07-08T03:22:39.910Z,20.00
2018-07-08T03:23:39.943Z,21.60
2018-07-08T03:24:39.978Z,20.80
2018-07-08T03:25:40.013Z,20.00
2018-07-08T03:26:40.048Z,21.50
2018-07-08T03:27:40.082Z,21.50
2018-07-08T03:28:40.114Z,20.50
2018-07-08T03:29:40.154Z,21.00
2018-07-08T03:30:40.184Z,21.30
2018-07-08T03:31:40.220Z,19.60
2018-07-08T03:32:40.256Z,20.30
2018-07-08T03:33:40.288Z,20.40
2018-07-08T03:34:40.333Z,20.20
2018-07-08T03:35:40.357Z,20.40
2018-07-08T03:36:40.390Z,19.80
2018-07-08T03:37:40.424Z,19.90
2018-07-08T03:38:40.460Z,19.80
2018-07-08T03:39:40.495Z,19.30
2018-07-08T03:40:40.529Z,20.50
2018-07-08T03:41:40.563Z,22.30
2018-07-08T03:42:40.602Z,20.80
2018-07-08T03:43:40.633Z,20.70
2018-07-08T03:44:40.666Z,20.80
2018-07-08T03:45:40.700Z,20.20
2018-07-08T03:46:40.739Z,20.70
2018-07-08T03:47:40.793Z,18.70
2018-07-08T03:48:40.803Z,19.80
2018-07-08T03:49:40.839Z,18.50
2018-07-08T03:50:40.873Z,17.90
2018-07-08T03:51:40.906Z,19.70
2018-07-08T03:52:40.941Z,18.80
2018-07-08T03:53:40.980Z,18.10
2018-07-08T03:54:41.010Z,17.10
2018-07-08T03:55:41.046Z,18.30
2018-07-08T03:56:41.078Z,16.70
2018-07-08T03:57:41.115Z,17.60
2018-07-08T03:58:41.145Z,17.90
2018-07-08T03:59:41.180Z,18.10
2018-07-08T04:00:41.215Z,19.10
2018-07-08T04:01:41.249Z,19.30
2018-07-08T04:02:41.284Z,18.60
2018-07-08T04:03:41.318Z,19.40
2018-07-08T04:04:41.353Z,20.30
2018-07-08T04:05:41.386Z,20.70
2018-07-08T04:06:41.421Z,21.60
2018-07-08T04:07:41.456Z,19.30
2018-07-08T04:08:41.489Z,17.30
2018-07-08T04:09:41.523Z,16.50
2018-07-08T04:10:41.558Z,17.60
2018-07-08T04:11:41.594Z,17.70
2018-07-08T04:12:41.626Z,18.00
2018-07-08T04:13:41.665Z,17.50
2018-07-08T04:14:41.696Z,18.10
2018-07-08T04:15:41.733Z,18.10
2018-07-08T04:16:41.763Z,18.70
2018-07-08T04:17:41.799Z,18.80
2018-07-08T04:18:41.834Z,18.10
2018-07-08T04:19:41.867Z,17.70
2018-07-08T04:20:41.905Z,19.30
2018-07-08T04:21:41.936Z,18.40
2018-07-08T04:22:41.971Z,18.50
2018-07-08T04:23:42.005Z,18.40
2018-07-08T04:24:42.037Z,17.80
2018-07-08T04:25:42.072Z,17.80
2018-07-08T04:26:42.107Z,17.40
2018-07-08T04:27:42.141Z,17.90
2018-07-08T04:28:42.176Z,17.80
2018-07-08T04:29:42.210Z,17.40
2018-07-08T04:30:42.246Z,16.80
2018-07-08T04:31:42.279Z,15.70
2018-07-08T04:32:42.317Z,16.40
2018-07-08T04:33:42.348Z,16.70
2018-07-08T04:34:42.383Z,16.60
2018-07-08T04:35:42.417Z,15.00
2018-07-08T04:36:42.452Z,14.70
2018-07-08T04:37:42.486Z,15.20
2018-07-08T04:38:42.521Z,15.90
2018-07-08T04:39:42.558Z,16.50
2018-07-08T04:40:42.590Z,15.20
2018-07-08T04:41:42.625Z,16.30
2018-07-08T04:42:42.659Z,15.70
2018-07-08T04:43:42.694Z,16.90
2018-07-08T04:44:42.728Z,16.80
2018-07-08T04:45:42.764Z,18.00
2018-07-08T04:46:42.796Z,17.60
2018-07-08T04:47:42.832Z,18.40
2018-07-08T04:48:42.865Z,19.60
2018-07-08T04:49:42.901Z,17.20
2018-07-08T04:50:42.943Z,18.40
2018-07-08T04:51:42.971Z,16.80
2018-07-08T04:52:43.008Z,16.80
2018-07-08T04:53:43.043Z,17.30
2018-07-08T04:54:43.073Z,17.10
2018-07-08T04:55:43.109Z,18.60
2018-07-08T04:56:43.143Z,18.00
2018-07-08T04:57:43.179Z,18.00
2018-07-08T04:58:43.212Z,18.10
2018-07-08T04:59:43.249Z,17.30
2018-07-08T05:00:43.283Z,18.20
2018-07-08T05:01:43.319Z,19.60
2018-07-08T05:02:43.353Z,18.70
2018-07-08T05:03:43.388Z,19.10
2018-07-08T05:04:43.421Z,17.30
2018-07-08T05:05:43.456Z,19.00
2018-07-08T05:06:43.493Z,19.00
2018-07-08T05:07:43.528Z,18.80
2018-07-08T05:08:43.562Z,19.00
2018-07-08T05:09:43.598Z,18.80
2018-07-08T05:10:43.633Z,18.10
2018-07-08T05:11:43.668Z,18.50
2018-07-08T05:12:43.705Z,18.80
2018-07-08T05:13:43.740Z,19.10
2018-07-08T05:14:43.773Z,18.80
2018-07-08T05:15:43.809Z,18.10
2018-07-08T05:16:43.843Z,17.50
2018-07-08T05:17:43.877Z,17.00
2018-07-08T05:18:43.914Z,17.00
2018-07-08T05:19:43.948Z,16.80
2018-07-08T05:20:43.985Z,16.40
2018-07-08T05:21:44.018Z,17.30
2018-07-08T05:22:44.055Z,16.90
2018-07-08T05:23:44.090Z,17.60
2018-07-08T05:24:44.125Z,17.90
2018-07-08T05:25:44.161Z,17.60
2018-07-08T05:26:44.196Z,17.90
2018-07-08T05:27:44.236Z,16.90
2018-07-08T05:28:45.683Z,17.40
2018-07-08T05:29:44.354Z,17.60
2018-07-08T05:30:44.338Z,17.10
2018-07-08T05:31:44.374Z,17.10
2018-07-08T05:32:44.408Z,16.80
2018-07-08T05:33:44.445Z,15.60
2018-07-08T05:34:44.480Z,15.70
2018-07-08T05:35:44.585Z,16.50
2018-07-08T05:36:44.552Z,16.40
2018-07-08T05:37:44.591Z,15.90
2018-07-08T05:38:44.624Z,16.40
2018-07-08T05:39:44.662Z,16.20
2018-07-08T05:40:44.697Z,16.30
2018-07-08T05:41:44.732Z,16.10
2018-07-08T05:42:44.768Z,16.00
2018-07-08T05:43:44.804Z,16.00
2018-07-08T05:44:44.841Z,15.50
2018-07-08T05:45:44.878Z,15.00
2018-07-08T05:46:44.913Z,15.10
2018-07-08T05:47:44.950Z,14.20
2018-07-08T05:48:44.986Z,15.20
2018-07-08T05:49:45.024Z,14.90
2018-07-08T05:50:45.060Z,15.30
2018-07-08T05:51:45.097Z,15.00
2018-07-08T05:52:45.130Z,15.10
2018-07-08T05:53:45.170Z,14.90
2018-07-08T05:54:45.204Z,14.70
2018-07-08T05:55:45.243Z,14.00
2018-07-08T05:56:45.278Z,14.00
2018-07-08T05:57:45.315Z,14.50
2018-07-08T05:58:45.354Z,14.70
2018-07-08T05:59:45.388Z,14.20
2018-07-08T06:00:45.424Z,14.80
2018-07-08T06:01:45.460Z,14.90
2018-07-08T06:02:45.497Z,14.60
2018-07-08T06:03:45.535Z,14.90
2018-07-08T06:04:45.571Z,13.90
2018-07-08T06:05:45.608Z,13.20
2018-07-08T06:06:45.645Z,14.20
2018-07-08T06:07:45.681Z,13.90
2018-07-08T06:08:45.719Z,14.30
2018-07-08T06:09:45.754Z,14.00
2018-07-08T06:10:45.790Z,13.70
2018-07-08T06:11:45.828Z,14.30
2018-07-08T06:12:45.863Z,12.40
2018-07-08T06:13:45.901Z,10.30
2018-07-08T06:14:45.938Z,10.30
2018-07-08T06:15:45.976Z,10.90
2018-07-08T06:16:46.035Z,10.50
2018-07-08T06:17:46.048Z,11.20
2018-07-08T06:18:46.085Z,13.40
2018-07-08T06:19:46.121Z,13.30
2018-07-08T06:20:46.213Z,12.10
2018-07-08T06:21:46.196Z,13.60
2018-07-08T06:22:46.232Z,12.30
2018-07-08T06:23:46.289Z,9.90
2018-07-08T06:24:46.306Z,9.00
2018-07-08T06:25:46.342Z,7.10
2018-07-08T06:26:46.381Z,7.50
2018-07-08T06:27:46.416Z,5.20
2018-07-08T06:28:46.452Z,4.30
2018-07-08T06:29:46.491Z,4.00
2018-07-08T06:30:46.528Z,4.30
2018-07-08T06:31:46.588Z,4.50
2018-07-08T06:32:46.601Z,4.20
2018-07-08T06:33:46.639Z,4.30
2018-07-08T06:34:46.678Z,4.30
2018-07-08T06:35:46.712Z,4.20
2018-07-08T06:36:46.768Z,4.30
2018-07-08T06:37:46.786Z,3.70
2018-07-08T06:38:46.843Z,4.00
2018-07-08T06:40:46.916Z,3.90
2018-07-08T06:41:46.935Z,3.60
2018-07-08T06:42:46.973Z,3.60
2018-07-08T06:43:47.009Z,4.20
2018-07-08T06:44:47.046Z,4.70
2018-07-08T06:45:47.084Z,4.00
2018-07-08T06:46:47.121Z,4.00
2018-07-08T06:47:47.158Z,4.00
2018-07-08T06:48:47.196Z,3.70
2018-07-08T06:49:47.236Z,3.60
2018-07-08T06:50:47.270Z,3.60
2018-07-08T06:51:47.307Z,3.70
2018-07-08T06:52:47.342Z,3.70
2018-07-08T06:53:47.380Z,4.50
2018-07-08T06:54:47.418Z,4.00
2018-07-08T06:55:47.458Z,4.00
2018-07-08T06:56:47.491Z,4.60
2018-07-08T06:57:47.562Z,4.70
2018-07-08T06:58:47.567Z,4.80
2018-07-08T06:59:47.603Z,4.30
2018-07-08T07:00:47.641Z,4.70
2018-07-08T07:01:47.677Z,5.20
2018-07-08T07:02:47.715Z,4.80
2018-07-08T07:03:47.751Z,4.40
2018-07-08T07:04:47.789Z,5.10
2018-07-08T07:05:47.825Z,4.70
2018-07-08T07:06:47.877Z,5.00
2018-07-08T07:07:47.901Z,5.30
2018-07-08T07:08:47.937Z,4.80
2018-07-08T07:09:47.991Z,5.10
2018-07-08T07:10:48.012Z,4.80
2018-07-08T07:11:48.069Z,4.60
2018-07-08T07:12:48.086Z,4.50
2018-07-08T07:13:48.124Z,5.10
2018-07-08T07:14:48.183Z,5.10
2018-07-08T07:15:48.199Z,5.40
2018-07-08T07:16:48.236Z,4.80
2018-07-08T07:17:48.273Z,5.00
2018-07-08T07:18:48.311Z,4.40
2018-07-08T07:19:48.349Z,4.90
2018-07-08T07:20:48.385Z,5.20
2018-07-08T07:21:48.422Z,4.80
2018-07-08T07:22:48.460Z,4.90
2018-07-08T07:23:48.519Z,4.70
2018-07-08T07:24:48.534Z,4.80
2018-07-08T07:25:48.573Z,4.70
2018-07-08T07:26:48.612Z,4.70
2018-07-08T07:27:48.649Z,4.40
2018-07-08T07:28:48.685Z,4.90
2018-07-08T07:29:48.726Z,4.60
2018-07-08T07:30:48.760Z,4.40
2018-07-08T07:31:48.800Z,4.70
2018-07-08T07:32:48.836Z,4.60
2018-07-08T07:33:48.874Z,4.60
2018-07-08T07:34:48.911Z,4.70
2018-07-08T07:35:48.950Z,4.60
2018-07-08T07:36:48.986Z,4.90
2018-07-08T07:37:49.024Z,5.20
2018-07-08T07:38:49.062Z,4.50
2018-07-08T07:39:49.100Z,4.90
2018-07-08T07:40:49.138Z,4.50
2018-07-08T07:41:49.175Z,4.90
2018-07-08T07:42:49.214Z,4.40
2018-07-08T07:43:49.251Z,5.00
2018-07-08T07:44:49.291Z,5.10
2018-07-08T07:45:49.327Z,5.20
2018-07-08T07:46:49.368Z,4.00
2018-07-08T07:47:49.403Z,5.20
2018-07-08T07:48:49.440Z,5.10
2018-07-08T07:49:49.479Z,4.80
2018-07-08T07:50:49.517Z,5.70
2018-07-08T07:51:49.555Z,4.90
2018-07-08T07:52:49.593Z,4.70
2018-07-08T07:53:49.630Z,4.80
2018-07-08T07:54:49.669Z,4.80
2018-07-08T07:55:49.709Z,5.50
2018-07-08T07:56:49.743Z,5.10
2018-07-08T07:57:49.783Z,4.60
2018-07-08T07:58:49.821Z,4.70
2018-07-08T07:59:49.860Z,5.30
2018-07-08T08:00:49.898Z,4.90
2018-07-08T08:01:49.936Z,4.70
2018-07-08T08:02:49.975Z,4.40
2018-07-08T08:03:50.014Z,4.40
2018-07-08T08:04:50.050Z,4.50
2018-07-08T08:05:50.089Z,4.90
2018-07-08T08:06:50.129Z,4.30
2018-07-08T08:07:50.166Z,5.20
2018-07-08T08:08:50.208Z,5.40
2018-07-08T08:09:50.243Z,4.10
2018-07-08T08:10:50.382Z,4.60
2018-07-08T08:11:50.323Z,4.50
2018-07-08T08:12:50.360Z,5.00
2018-07-08T08:13:50.449Z,4.80
2018-07-08T08:14:50.440Z,5.10
2018-07-08T08:15:50.476Z,4.80
2018-07-08T08:16:50.518Z,5.20
2018-07-08T08:17:50.554Z,4.60
2018-07-08T08:18:50.593Z,4.50
2018-07-08T08:19:50.632Z,4.20
2018-07-08T08:20:50.671Z,4.60
2018-07-08T08:21:50.710Z,4.60
2018-07-08T08:22:50.749Z,4.50
2018-07-08T08:23:50.788Z,4.80
2018-07-08T08:24:50.826Z,4.90
2018-07-08T08:25:50.867Z,4.80
2018-07-08T08:26:50.996Z,4.40
2018-07-08T08:27:50.945Z,5.00
2018-07-08T08:28:50.985Z,4.40
2018-07-08T08:29:51.024Z,4.80
2018-07-08T08:30:51.062Z,4.70
2018-07-08T08:31:51.103Z,4.80
2018-07-08T08:32:51.236Z,4.40
2018-07-08T08:33:51.181Z,4.40
2018-07-08T08:34:51.224Z,4.60
2018-07-08T08:35:54.287Z,5.00
2018-07-08T08:36:51.320Z,4.30
2018-07-08T08:37:51.339Z,4.50
2018-07-08T08:38:51.383Z,4.40
2018-07-08T08:39:51.419Z,3.90
2018-07-08T08:40:51.480Z,4.10
2018-07-08T08:41:51.496Z,4.30
2018-07-08T08:42:51.536Z,4.40
2018-07-08T08:43:51.595Z,4.30
2018-07-08T08:44:51.617Z,4.40
2018-07-08T08:45:52.102Z,4.00
2018-07-08T08:47:51.737Z,4.40
2018-07-08T08:48:51.776Z,4.50
2018-07-08T08:49:51.816Z,4.60
2018-07-08T08:50:51.856Z,4.60
2018-07-08T08:51:51.896Z,4.20
2018-07-08T08:52:51.936Z,5.30
2018-07-08T08:53:51.979Z,4.80
2018-07-08T08:54:52.016Z,5.00
2018-07-08T08:55:52.056Z,4.60
2018-07-08T08:56:52.097Z,4.50
2018-07-08T08:57:52.139Z,4.30
2018-07-08T08:58:52.177Z,4.80
2018-07-08T08:59:52.239Z,4.20
2018-07-08T09:00:52.258Z,4.00
2018-07-08T09:01:52.299Z,4.20
2018-07-08T09:02:52.340Z,4.40
2018-07-08T09:03:53.597Z,4.20
2018-07-08T09:04:52.440Z,3.90
2018-07-08T09:06:52.502Z,4.20
2018-07-08T09:07:52.868Z,4.00
2018-07-08T09:08:52.601Z,4.00
2018-07-08T09:09:52.623Z,4.50
2018-07-08T09:10:52.755Z,4.10
2018-07-08T09:11:52.931Z,4.40
2018-07-08T09:12:52.763Z,4.20
2018-07-08T09:13:52.804Z,4.60
2018-07-08T09:16:10.494Z,3.80
2018-07-08T09:17:10.778Z,3.60
2018-07-08T09:18:10.576Z,3.80
2018-07-08T09:19:10.595Z,3.70
2018-07-08T09:20:10.638Z,4.00
2018-07-08T09:21:10.677Z,4.00
2018-07-08T09:22:10.720Z,4.20
2018-07-08T09:23:10.981Z,4.10
2018-07-08T09:24:10.799Z,3.50
2018-07-08T09:25:11.064Z,3.20
2018-07-08T09:26:10.885Z,4.20
2018-07-08T09:27:10.924Z,4.10
2018-07-08T09:28:10.982Z,4.10
2018-07-08T09:29:11.016Z,3.70
2018-07-08T09:30:11.047Z,3.40
2018-07-08T09:31:11.089Z,3.40
2018-07-08T09:32:11.129Z,3.60
2018-07-08T09:33:11.170Z,3.70
2018-07-08T09:34:11.213Z,3.70
2018-07-08T09:35:11.255Z,3.60
2018-07-08T09:36:11.295Z,3.40
2018-07-08T09:37:11.337Z,2.90
2018-07-08T09:38:11.378Z,3.40
2018-07-08T09:39:11.525Z,3.20
2018-07-08T09:40:11.461Z,3.60
2018-07-08T09:41:11.502Z,3.00
2018-07-08T09:42:11.544Z,3.20
2018-07-08T09:43:11.586Z,3.40
2018-07-08T09:44:11.626Z,3.10
2018-07-08T09:45:11.667Z,2.90
2018-07-08T09:46:11.709Z,3.10
2018-07-08T09:47:11.753Z,3.20
2018-07-08T09:48:11.794Z,3.40
2018-07-08T09:49:11.834Z,2.90
2018-07-08T09:50:11.876Z,3.40
2018-07-08T09:51:11.935Z,3.10
2018-07-08T09:52:11.983Z,3.00
2018-07-08T09:53:12.016Z,3.00
2018-07-08T09:54:12.063Z,3.50
2018-07-08T09:55:12.109Z,3.80
2018-07-08T09:56:12.146Z,3.50
2018-07-08T09:57:12.169Z,3.60
2018-07-08T09:58:12.212Z,3.50
2018-07-08T09:59:12.253Z,4.10
2018-07-08T10:00:12.295Z,3.30
2018-07-08T10:01:12.337Z,3.10
2018-07-08T10:02:12.377Z,3.60
2018-07-08T10:03:12.421Z,3.70
2018-07-08T10:04:12.462Z,3.10
2018-07-08T10:05:12.506Z,3.00
2018-07-08T10:06:12.546Z,2.80
2018-07-08T10:07:12.590Z,3.50
2018-07-08T10:08:12.635Z,2.90
2018-07-08T10:09:12.677Z,2.40
2018-07-08T10:10:12.719Z,2.90
2018-07-08T10:11:12.757Z,2.70
2018-07-08T10:12:12.799Z,2.70
2018-07-08T10:13:12.842Z,3.30
2018-07-08T10:14:12.886Z,3.20
2018-07-08T10:15:12.927Z,3.10
2018-07-08T10:16:12.973Z,3.00
2018-07-08T10:17:13.034Z,3.10
2018-07-08T10:18:13.074Z,2.90
2018-07-08T10:19:13.096Z,3.20
2018-07-08T10:20:13.306Z,2.90
2018-07-08T10:21:13.181Z,2.60
2018-07-08T10:22:13.226Z,2.80
2018-07-08T10:23:13.266Z,2.90
2018-07-08T10:24:13.306Z,2.90
2018-07-08T10:25:13.386Z,2.60
2018-07-08T10:26:13.394Z,2.80
2018-07-08T10:27:13.437Z,2.90
2018-07-08T10:28:13.478Z,2.30
2018-07-08T10:29:13.522Z,2.50
2018-07-08T10:30:13.585Z,2.40
2018-07-08T10:31:13.607Z,2.60
2018-07-08T10:32:13.647Z,3.00
2018-07-08T10:33:13.690Z,2.90
2018-07-08T10:34:13.733Z,2.30
2018-07-08T10:35:13.776Z,2.20
2018-07-08T10:36:13.819Z,2.70
2018-07-08T10:37:13.861Z,2.40
2018-07-08T10:38:13.907Z,2.40
2018-07-08T10:39:13.958Z,2.40
2018-07-08T10:40:13.989Z,2.30
2018-07-08T10:41:14.032Z,2.30
2018-07-08T10:42:14.079Z,2.50
2018-07-08T10:43:14.136Z,2.30
2018-07-08T10:44:14.164Z,2.60
2018-07-08T10:45:14.204Z,2.20
2018-07-08T10:46:14.248Z,2.20
2018-07-08T10:47:16.915Z,2.20
2018-07-08T10:48:14.336Z,3.50
2018-07-08T10:49:14.583Z,4.10
2018-07-08T10:50:14.425Z,3.10
2018-07-08T10:51:14.471Z,2.40
2018-07-08T10:52:14.516Z,2.00
2018-07-08T10:53:14.563Z,2.40
2018-07-08T10:54:14.610Z,2.10
2018-07-08T10:55:14.710Z,2.10
2018-07-08T10:56:14.736Z,2.20
2018-07-08T10:57:14.751Z,2.00
2018-07-08T10:58:14.800Z,2.20
2018-07-08T10:59:14.849Z,2.70
2018-07-08T11:00:14.897Z,2.30
2018-07-08T11:01:14.947Z,1.80
2018-07-08T11:02:14.995Z,2.20
2018-07-08T11:03:15.046Z,2.00
2018-07-08T11:04:15.096Z,1.90
2018-07-08T11:05:15.149Z,1.90
2018-07-08T11:06:15.216Z,2.20
2018-07-08T11:07:15.248Z,2.20
2018-07-08T11:08:15.300Z,1.80
2018-07-08T11:09:15.349Z,1.90
2018-07-08T11:10:15.405Z,2.10
2018-07-08T11:11:15.470Z,2.20
2018-07-08T11:12:15.507Z,2.10
2018-07-08T11:13:15.574Z,2.20
2018-07-08T11:14:15.611Z,1.70
2018-07-08T11:15:15.668Z,2.00
2018-07-08T11:16:15.716Z,1.50
2018-07-08T11:17:15.769Z,1.80
2018-07-08T11:18:15.825Z,1.70
2018-07-08T11:19:15.877Z,1.80
2018-07-08T11:20:15.928Z,2.20
2018-07-08T11:21:15.984Z,1.70
2018-07-08T11:22:16.036Z,1.70
2018-07-08T11:23:16.091Z,1.60
2018-07-08T11:24:16.144Z,1.90
2018-07-08T11:25:16.199Z,1.80
2018-07-08T11:26:16.285Z,1.70
2018-07-08T11:27:16.310Z,1.90
2018-07-08T11:28:17.171Z,1.80
2018-07-08T11:29:16.416Z,1.80
2018-07-08T11:30:16.473Z,1.70
2018-07-08T11:31:16.528Z,1.60
2018-07-08T11:32:16.582Z,1.70
2018-07-08T11:33:16.637Z,2.30
2018-07-08T11:34:16.693Z,1.90
2018-07-08T11:35:16.748Z,1.60
2018-07-08T11:36:16.806Z,1.70
2018-07-08T11:37:16.858Z,1.70
2018-07-08T11:38:16.914Z,1.80
2018-07-08T11:39:16.969Z,1.60
2018-07-08T11:40:17.023Z,1.40
2018-07-08T11:41:17.079Z,1.70
2018-07-08T11:42:17.134Z,1.60
2018-07-08T11:43:17.192Z,1.80
2018-07-08T11:44:17.245Z,1.70
2018-07-08T11:45:17.300Z,1.70
2018-07-08T11:46:17.356Z,1.70
2018-07-08T11:47:17.412Z,1.70
2018-07-08T11:48:17.466Z,2.10
2018-07-08T11:49:17.521Z,1.80
2018-07-08T11:50:17.577Z,1.60
2018-07-08T11:51:17.632Z,1.70
2018-07-08T11:52:17.687Z,1.40
2018-07-08T11:53:17.743Z,1.90
2018-07-08T11:54:17.800Z,1.50
2018-07-08T11:55:17.864Z,1.70
2018-07-08T11:56:17.915Z,1.60
2018-07-08T11:57:17.966Z,1.50
2018-07-08T11:58:18.025Z,1.70
2018-07-08T11:59:18.079Z,1.90
2018-07-08T12:00:18.135Z,2.00
2018-07-08T12:01:18.189Z,2.10
2018-07-08T12:02:18.246Z,1.60
2018-07-08T12:03:18.303Z,1.60
2018-07-08T12:04:18.579Z,1.70
2018-07-08T12:05:18.414Z,1.60
2018-07-08T12:06:18.512Z,1.70
2018-07-08T12:07:18.528Z,1.50
2018-07-08T12:08:18.582Z,1.30
2018-07-08T12:09:18.638Z,1.40
2018-07-08T12:10:18.695Z,1.40
2018-07-08T12:11:18.771Z,1.40
2018-07-08T12:12:18.806Z,1.60
2018-07-08T12:13:19.081Z,1.70
2018-07-08T12:14:18.919Z,1.50
2018-07-08T12:15:18.976Z,1.90
2018-07-08T12:16:19.030Z,1.50
2018-07-08T12:17:19.087Z,1.80
2018-07-08T12:18:19.143Z,1.40
2018-07-08T12:19:19.219Z,1.10
2018-07-08T12:20:19.271Z,1.40
2018-07-08T12:21:19.391Z,1.40
2018-07-08T12:22:19.367Z,1.20
2018-07-08T12:23:19.424Z,1.20
2018-07-08T12:24:19.480Z,1.30
2018-07-08T12:25:19.535Z,1.40
2018-07-08T12:26:19.592Z,1.30
2018-07-08T12:27:20.176Z,1.70
2018-07-08T12:28:19.725Z,1.30
2018-07-08T12:29:19.762Z,1.50
2018-07-08T12:30:19.818Z,1.40
2018-07-08T12:31:19.896Z,1.30
2018-07-08T12:32:19.932Z,1.30
2018-07-08T12:34:20.062Z,1.30
2018-07-08T12:35:20.104Z,1.20
2018-07-08T12:37:20.216Z,1.30
2018-07-08T12:38:20.291Z,1.40
2018-07-08T12:39:20.329Z,1.20
2018-07-08T12:40:22.023Z,1.10
2018-07-08T12:42:20.500Z,1.30
2018-07-08T12:43:20.554Z,1.20
2018-07-08T12:44:20.647Z,1.40
2018-07-08T12:45:20.687Z,1.30
2018-07-08T12:46:20.730Z,1.40
2018-07-08T12:47:20.782Z,1.40
2018-07-08T12:48:20.859Z,1.00
2018-07-08T12:49:20.897Z,1.30
2018-07-08T12:50:20.950Z,1.20
2018-07-08T12:51:22.532Z,1.60
2018-07-08T12:52:21.064Z,1.20
2018-07-08T12:53:21.123Z,1.30
2018-07-08T12:54:21.400Z,1.30
2018-07-08T12:56:21.312Z,1.50
2018-07-08T13:00:34.112Z,1.50
2018-07-08T13:01:34.388Z,1.50
2018-07-08T13:02:34.225Z,1.50
2018-07-08T13:03:34.279Z,1.20
2018-07-08T13:04:34.335Z,1.40
2018-07-08T13:05:34.613Z,1.30
2018-07-08T13:06:34.720Z,1.60
2018-07-08T13:07:34.502Z,1.70
2018-07-08T13:08:34.559Z,1.50
2018-07-08T13:09:34.615Z,1.40
2018-07-08T13:10:34.672Z,1.50
2018-07-08T13:11:34.773Z,1.40
2018-07-08T13:12:34.782Z,1.70
2018-07-08T13:13:34.839Z,1.70
2018-07-08T13:14:35.096Z,1.50
2018-07-08T13:15:34.950Z,1.30
2018-07-08T13:16:35.336Z,1.20
2018-07-08T13:17:35.060Z,1.50
2018-07-08T13:18:35.134Z,1.50
2018-07-08T13:19:35.172Z,1.60
2018-07-08T13:20:35.228Z,1.30
2018-07-08T13:21:35.306Z,1.20
2018-07-08T13:22:35.665Z,1.50
2018-07-08T13:23:35.393Z,1.20
2018-07-08T13:24:35.450Z,1.60
2018-07-08T13:25:35.504Z,1.40
2018-07-08T13:26:35.578Z,1.70
2018-07-08T13:27:35.615Z,1.20
2018-07-08T13:28:35.672Z,1.70
2018-07-08T13:29:35.727Z,1.40
2018-07-08T13:30:35.783Z,1.60
2018-07-08T13:31:35.836Z,1.30
2018-07-08T13:32:35.917Z,1.30
2018-07-08T13:33:35.948Z,1.40
2018-07-08T13:34:36.004Z,1.60
2018-07-08T13:35:36.059Z,1.40
2018-07-08T13:36:36.114Z,1.40
2018-07-08T13:37:36.170Z,1.50
2018-07-08T13:38:36.230Z,1.40
2018-07-08T13:39:36.281Z,1.60
2018-07-08T13:40:36.335Z,1.20
2018-07-08T13:41:36.717Z,1.40
2018-07-08T13:42:36.446Z,1.50
2018-07-08T13:43:36.502Z,1.40
2018-07-08T13:44:36.566Z,1.50
2018-07-08T13:45:36.615Z,1.30
2018-07-08T13:46:36.666Z,1.10
2018-07-08T13:47:36.724Z,1.30
2018-07-08T13:48:36.780Z,1.50
2018-07-08T13:49:36.833Z,1.30
2018-07-08T13:50:36.888Z,1.20
2018-07-08T13:51:36.943Z,1.30
2018-07-08T13:52:36.998Z,1.50
2018-07-08T13:53:37.054Z,1.60
2018-07-08T13:54:37.107Z,1.30
2018-07-08T13:55:37.213Z,1.40
2018-07-08T13:56:37.218Z,1.40
2018-07-08T13:57:37.272Z,1.30
2018-07-08T13:58:37.326Z,1.70
2018-07-08T13:59:37.381Z,1.50
2018-07-08T14:00:37.436Z,1.40
2018-07-08T14:01:37.495Z,1.40
2018-07-08T14:02:37.544Z,1.20
2018-07-08T14:03:37.600Z,1.40
2018-07-08T14:04:37.655Z,1.20
2018-07-08T14:05:37.710Z,1.30